Latest Coastal Weather Observations for Tasman Island

IDT60701

Issued at 2:02 pm EDT Monday 18 November 2019 (issued every 10 minutes, with the page automatically refreshed every 10 minutes)

About coastal observations | Map of coastal stations | Coastal observations for TAS | Marine services | Other Formats
Station Details ID: 094155 Name: TASMAN ISLAND Lat: -43.24 Lon: 148.00 Height: 240.0 m
Data from the previous 72 hours. | See also: Recent months at Tasman Island
Date/Time
EDT
Wind Sea
Height
m
Swell Vis
km
Cloud Weather Temp
°C
Press
hPa
Rain since
9am
mm
Dir  Spd
kts
Gust
kts
Height
m
Period
s
Dir
18/02:00pm WNW 8 23 - - - - - - - 16.1 1001.2 0.0
18/01:30pm SW 7 22 - - - - - - - 16.1 1001.5 0.0
18/01:00pm SSW 7 21 - - - - - - - - 1001.6 0.0
18/12:30pm WSW 8 22 - - - - - - - 15.1 1001.4 0.0
18/12:00pm SSW 7 22 - - - - - - - - 1001.9 0.0
18/11:30am WSW 6 22 - - - - - - - 14.4 1001.8 0.0
18/11:00am SSW 7 19 - - - - - - - 13.8 1002.5 0.0
18/10:30am WSW 6 18 - - - - - - - - 1002.9 0.0
18/10:00am WNW 9 23 - - - - - - - - 1002.7 0.0
18/09:30am WNW 8 20 - - - - - - - 13.1 1003.0 0.0
18/09:00am WNW 8 18 - - - - - - - - 1003.4 0.6
18/08:30am WNW 9 20 - - - - - - - - 1003.5 0.6
18/08:00am WNW 11 20 - - - - - - - 12.0 1003.6 0.6
18/07:30am WNW 14 25 - - - - - - - 11.2 1003.3 0.6
18/07:23am WNW 15 25 - - - - - - - 11.1 1003.4 0.6
18/07:00am WNW 17 25 - - - - - - - 10.5 1003.5 0.6
18/06:30am WNW 18 25 - - - - - - - 10.3 1003.6 0.6
18/06:12am WNW 15 25 - - - - - - - - 1004.4 0.6
18/06:00am NW 12 20 - - - - - - - - 1004.7 0.6
18/05:30am NW 17 23 - - - - - - - - 1004.8 0.6
18/05:00am WNW 17 26 - - - - - - - - 1005.0 0.6
18/04:53am WNW 15 26 - - - - - - - - 1004.7 0.6
18/04:30am NW 12 20 - - - - - - - - 1005.3 0.6
18/04:00am WNW 17 25 - - - - - - - - 1005.8 0.6
18/03:54am NW 15 25 - - - - - - - - 1005.9 0.6
18/03:30am NW 11 17 - - - - - - - - 1006.7 0.6
18/03:00am NW 18 25 - - - - - - - - 1007.1 0.6
18/02:30am NW 18 25 - - - - - - - - 1007.8 0.6
18/02:00am NW 14 23 - - - - - - - - 1008.6 0.6
18/01:30am NW 15 23 - - - - - - - - 1009.0 0.6
18/01:00am NW 14 21 - - - - - - - - 1009.7 0.6
18/12:30am NW 14 23 - - - - - - - - 1010.4 0.6
18/12:00am NW 12 18 - - - - - - - - 1010.9 0.6
 
Date/Time
EDT
Wind Sea
Height
m
Swell Vis
km
Cloud Weather Temp
°C
Press
hPa
Rain since
9am
mm
Dir  Spd
kts
Gust
kts
Height
m
Period
s
Dir
17/11:30pm NW 8 12 - - - - - - - - 1011.6 0.6
17/11:00pm NW 7 10 - - - - - - - - 1012.0 0.6
17/10:30pm NW 7 12 - - - - - - - - 1012.8 0.6
17/10:00pm N 15 19 - - - - - - - - 1013.4 0.6
17/09:30pm NNW 13 20 - - - - - - - - 1013.3 0.6
17/09:00pm NW 11 17 - - - - - - - - 1013.4 0.6
17/08:30pm WSW 3 10 - - - - - - - - 1013.6 0.6
17/08:00pm SW 6 13 - - - - - - - - 1013.7 0.6
17/07:30pm W 7 19 - - - - - - - - 1013.5 0.6
17/07:00pm SSW 7 22 - - - - - - - - 1013.6 0.6
17/06:30pm SSW 8 22 - - - - - - - - 1013.8 0.6
17/06:00pm SW 13 24 - - - - - - - - 1013.8 0.6
17/05:30pm SSW 15 25 - - - - - - - - 1013.8 0.6
17/05:29pm SSW 15 25 - - - - - - - - 1013.8 0.6
17/05:00pm SW 17 25 - - - - - - - - 1013.8 0.6
17/04:30pm SW 18 26 - - - - - - - - 1013.6 0.6
17/04:16pm SW 17 27 - - - - - - - - 1013.7 0.6
17/04:00pm SSW 17 25 - - - - - - - - 1013.7 0.6
17/03:49pm SSW 15 25 - - - - - - - - 1013.6 0.6
17/03:30pm SSW 17 25 - - - - - - - - 1013.5 0.6
17/03:00pm SW 17 26 - - - - - - - - 1013.4 0.6
17/02:54pm SSW 15 25 - - - - - - - - 1013.5 0.6
17/02:30pm SW 18 26 - - - - - - - - 1013.5 0.6
17/02:00pm SW 16 24 - - - - - - - - 1013.8 0.6
17/01:59pm SW 15 25 - - - - - - - - 1013.9 0.6
17/01:30pm SW 17 25 - - - - - - - - 1013.9 0.6
17/01:24pm SW 15 25 - - - - - - - - 1013.9 0.6
17/01:00pm SW 12 24 - - - - - - - - 1014.0 0.6
17/12:30pm SW 10 25 - - - - - - - - 1013.9 0.6
17/12:00pm WSW 11 24 - - - - - - - - 1014.0 0.6
17/11:30am WSW 12 24 - - - - - - - - 1014.1 0.6
17/11:00am WSW 11 24 - - - - - - - - 1014.0 0.6
17/10:30am NNW 6 21 - - - - - - - - 1014.0 0.6
17/10:00am WSW 12 24 - - - - - - - - 1013.8 0.6
17/09:30am S 6 20 - - - - - - - - 1013.5 0.0
17/09:00am SW 9 24 - - - - - - - - 1013.1 4.6
17/08:30am WSW 12 24 - - - - - - - - 1012.8 4.6
17/08:00am WSW 7 23 - - - - - - - - 1012.4 4.6
17/07:30am ESE 6 24 - - - - - - - - 1012.3 4.0
17/07:00am ENE 6 20 - - - - - - - 6.0 1011.9 4.0
17/06:30am WSW 8 24 - - - - - - - 5.5 1011.6 4.0
17/06:00am WSW 7 19 - - - - - - Recent precip. 5.5 1011.3 3.8
17/05:30am WSW 10 26 - - - - - - - 5.3 1010.7 3.8
17/05:24am WSW 15 26 - - - - - - - 5.0 1010.2 3.8
17/05:00am NNW 8 25 - - - - - - - - 1010.6 3.0
17/04:30am WSW 7 23 - - - - - - - - 1010.2 3.0
17/04:08am SW 15 26 - - - - - - - 4.8 1009.3 2.8
17/04:00am SW 9 25 - - - - - - - 6.2 1009.6 2.4
17/03:30am NNW 6 23 - - - - - - - 5.5 1009.7 2.4
17/03:00am SW 15 26 - - - - - - Rain 4.6 1009.4 1.8
17/02:30am WSW 6 22 - - - - - - - 6.4 1009.3 1.2
17/02:00am NNW 7 22 - - - - - - - 6.0 1009.3 1.2
17/01:30am SW 9 23 - - - - - - - 6.4 1009.2 1.2
17/01:00am SW 10 24 - - - - - - - 6.5 1009.0 1.2
17/12:30am W 7 24 - - - - - - - 6.7 1009.1 1.2
17/12:00am WSW 7 21 - - - - - - - 6.8 1009.3 1.2
 
Date/Time
EDT
Wind Sea
Height
m
Swell Vis
km
Cloud Weather Temp
°C
Press
hPa
Rain since
9am
mm
Dir  Spd
kts
Gust
kts
Height
m
Period
s
Dir
16/11:30pm NW 5 23 - - - - - - - 6.7 1009.0 1.2
16/11:00pm WSW 11 25 - - - - - - - 6.4 1009.0 1.2
16/10:36pm ENE 8 26 - - - - - - - 6.6 1009.0 0.2
16/10:30pm NNE 7 22 - - - - - - - 7.5 1008.8 0.0
16/10:00pm NW 5 19 - - - - - - - 7.4 1008.9 0.0
16/09:30pm W 7 19 - - - - - - - 7.2 1008.6 0.0
16/09:00pm WSW 11 24 - - - - - - - 6.7 1008.2 0.0
16/08:30pm WSW 12 24 - - - - - - - 8.1 1007.8 0.0
16/08:00pm WSW 14 25 - - - - - - - 8.3 1007.3 0.0
16/07:30pm WSW 9 23 - - - - - - - 8.6 1007.1 0.0
16/07:00pm W 13 24 - - - - - - - 8.8 1006.9 0.0
16/06:30pm WSW 13 24 - - - - - - - 8.2 1006.5 0.0
16/06:00pm WSW 13 24 - - - - - - - 8.7 1006.1 0.0
16/05:30pm WSW 11 23 - - - - - - - 8.7 1006.0 0.0
16/05:00pm SSW 14 25 - - - - - - - 8.5 1006.1 0.0
16/04:30pm WSW 11 22 - - - - - - - 9.2 1006.0 0.0
16/04:00pm SW 11 25 - - - - - - - 9.1 1005.8 0.0
16/03:30pm N 5 15 - - - - - - - 9.6 1006.0 0.0
16/03:00pm WNW 6 25 - - - - - - - 9.4 1005.8 0.0
16/02:30pm WSW 13 25 - - - - - - - 8.9 1005.8 0.0
16/02:00pm W 7 24 - - - - - - - 9.9 1005.6 0.0
16/01:30pm WNW 9 23 - - - - - - - 8.9 1005.8 0.0
16/01:00pm WNW 8 21 - - - - - - - 10.1 1005.8 0.0
16/12:30pm SSW 6 20 - - - - - - - 9.3 1005.8 0.0
16/12:00pm WSW 11 24 - - - - - - - 10.2 1005.7 0.0
16/11:30am N 7 23 - - - - - - - 8.6 1005.5 0.0
16/11:00am NNW 7 21 - - - - - - - 8.9 1005.5 0.0
16/10:30am NW 7 22 - - - - - - - 9.1 1004.9 0.0
16/10:00am NW 7 20 - - - - - - - 8.4 1005.2 0.0
16/09:30am NNW 8 23 - - - - - - - 8.6 1004.9 0.0
16/09:00am NW 7 22 - - - - - - - 8.6 1005.2 0.6
16/08:30am NNW 7 20 - - - - - - - 8.1 1005.0 0.6
16/08:00am NW 7 20 - - - - - - - 7.8 1005.2 0.6
16/07:30am W 6 20 - - - - - - - 7.5 1004.7 0.6
16/07:00am ENE 6 19 - - - - - - - 7.3 1004.5 0.6
16/06:30am WSW 6 18 - - - - - - - 7.0 1003.9 0.6
16/06:00am WSW 10 25 - - - - - - - 6.8 1003.6 0.6
16/05:30am NNW 6 17 - - - - - - - 6.6 1003.6 0.6
16/05:00am W 7 18 - - - - - - - 6.6 1003.4 0.6
16/04:30am S 7 23 - - - - - - - 6.5 1002.9 0.6
16/04:00am WNW 6 20 - - - - - - - 6.6 1002.9 0.6
16/03:30am W 7 18 - - - - - - - 6.6 1003.3 0.6
16/03:00am WSW 7 23 - - - - - - - 6.7 1003.5 0.6
16/02:30am NW 6 20 - - - - - - - 6.5 1003.2 0.6
16/02:00am W 7 22 - - - - - - - 6.6 1003.1 0.6
16/01:30am SW 6 24 - - - - - - - 6.6 1003.0 0.6
16/01:00am SSW 6 17 - - - - - - - 6.7 1003.3 0.6
16/12:30am SSW 6 21 - - - - - - - 6.7 1003.2 0.6
16/12:00am ENE 5 20 - - - - - - - 6.8 1003.0 0.6
 
Date/Time
EDT
Wind Sea
Height
m
Swell Vis
km
Cloud Weather Temp
°C
Press
hPa
Rain since
9am
mm
Dir  Spd
kts
Gust
kts
Height
m
Period
s
Dir
15/11:30pm SSW 6 22 - - - - - - - 6.8 1002.9 0.6
15/11:00pm WSW 6 22 - - - - - - - 6.9 1002.5 0.6
15/10:30pm W 7 16 - - - - - - - 7.0 1002.9 0.6
15/10:00pm SW 5 20 - - - - - - - 7.0 1002.9 0.6
15/09:30pm NNW 7 22 - - - - - - - 7.5 1002.1 0.6
15/09:00pm NNW 7 20 - - - - - - - 7.7 1001.6 0.6
15/08:30pm NNW 7 21 - - - - - - - 8.1 1001.2 0.6
15/08:00pm NNE 8 21 - - - - - - - 8.2 1000.6 0.6
15/07:30pm N 6 19 - - - - - - - 8.4 1000.6 0.6
15/07:00pm NW 7 19 - - - - - - - 9.0 999.8 0.6
15/06:30pm NNW 7 23 - - - - - - - 8.9 999.6 0.6
15/06:00pm WNW 7 17 - - - - - - Recent precip. 8.6 999.6 0.6
15/05:30pm W 6 22 - - - - - - - 8.2 999.4 0.6
15/05:00pm WSW 9 23 - - - - - - - 8.4 998.2 0.4
15/04:30pm NW 8 22 - - - - - - - 9.6 998.6 0.2
15/04:00pm W 6 20 - - - - - - - 9.8 998.7 0.2
15/03:30pm NW 6 21 - - - - - - - 8.9 998.8 0.2
15/03:00pm W 8 22 - - - - - - - 8.5 998.2 0.2
15/02:30pm NNW 8 22 - - - - - - - 8.1 998.1 0.2

Other formats

Comma delimited format used in spreadsheet applications
http://www.bom.gov.au/fwo/IDT60701/IDT60701.95986.axf

JavaScript Object Notation format (JSON) in row-major order
http://www.bom.gov.au/fwo/IDT60701/IDT60701.95986.json

Data quality

Most of these data are generated automatically and are frequently updated. Quality checks on data are not normally performed. It is possible for incorrect values to appear. Refer to information at About Latest Weather Observations and please check the disclaimer before using these data.